Terminal Aerodrome Forecast
Issued by NWS Wilmington, OH

Current Version | Previous Version | Graphics & Text | Print | Product List | Glossary On
Versions: 1 2 3 4 5 6 7 8 9 10 11 12 13 14 15 16 17 18 19 20 21 22 23 24 25 26 27
000
FTUS41 KILN 211121
TAFCVG
TAF
KCVG 211121Z 2112/2218 18007KT P6SM -RA BKN020 OVC100
      TEMPO 2112/2114 5SM -RA BR BKN008
     FM211400 20010KT P6SM SCT010 BKN025
      TEMPO 2114/2116 P6SM BKN010 OVC020
     FM211800 21009KT P6SM BKN025
     FM212100 23009KT P6SM VCSH BKN040
     FM220200 27007KT P6SM SCT040
     FM220700 28005KT P6SM SKC=

USA.gov is the U.S. government's official web portal to all federal, state and local government web resources and services.